Aérodrome :
LOGIN :

S'inscrire | Disclaimer

   EN    FR    IT 

 










Légende :    VFR   VFR Marginal   IFR   IFR Intensif   IFR Très Intensif
Visi : 
Plafond : 
>= 8 km
>= 3000ft
5 à 8 km
1000 à 3000 ft
1500m à 5 km
500 à 1000 ft
800 à 1500m
200 à 500 ft
< 800m
< 200 ft
Symboles :   Orages  Brouillard  Fortes neiges  Fortes précipitations  Vent > 20 kt
SIGMETs :   Divers  Orages  Givrage  Turbulence  Onde Orograph.  Cendres Volcan.






- Altitude de l'aérodrome : 1299 ft


EDTY - Adolf Würth

DERNIER METAR :
  • 220950Z 34005KT 270V040 9999 FEW038 09/02 Q1022

METARs EXPIRÉS :
  • 220920Z 35005KT 290V040 9999 FEW023 08/02 Q1022
  • 220850Z 36004KT 310V080 9999 FEW021 08/03 Q1022
  • 220820Z 04006KT 340V070 9999 FEW021 SCT045 07/03 Q1022
  • 220750Z 05006KT 020V080 9999 BKN019 07/03 Q1021
  • 220720Z 08005KT 9999 BKN018 07/03 Q1021

TAF TAF EDTY
Valide du 22 à 09h jusqu'au 22 à 18h UTC


220800Z 2209/2218 04008KT 9999 SCT020
BECMG 2209/2211 33009KT



MET'MAP, la Météo Aéronautique d'un coup d'oeil ! - Copyright ORBIFLY Décembre 2007 - Disclaimer

ORBIFLY MET'MAP TEAM :

Programmation & Développement : Alexandra Zaïnal
Sur une idée originale de : Baudouin d'Aumeries
Assistance à la programmation : Marc-Olivier Méhu
Soutien technique & logistique : Manuel Goepfert

Contact : metmap@orbifly.com




SOURCES & CREDITS :

   NOAA